Time;durP1;ratioP1;P1;durP2;ratioP2;P2;SDS_P1;SDS_P2;PMS_P1;PMS_P2;Temp;Humidity;BMP_temperature;BMP_pressure;BME280_temperature;BME280_humidity;BME280_pressure;Samples;Min_cycle;Max_cycle;Signal;HPM_P1;HPM_P2
2023/09/17 00:00:30;;;;;;;;;;;;;;;6.94;100.00;99357.75;5011707;28;19922;-84
2023/09/17 00:02:55;;;;;;;;;;;;;;;6.89;100.00;99357.00;5012602;28;19917;-82
2023/09/17 00:05:21;;;;;;;;;;;;;;;6.83;100.00;99354.59;5011251;28;19921;-83
2023/09/17 00:07:46;;;;;;;;;;;;;;;6.90;100.00;99356.97;5012217;28;19921;-81
2023/09/17 00:10:11;;;;;;;;;;;;;;;6.87;100.00;99346.53;5012512;28;20335;-82
2023/09/17 00:12:36;;;;;;;;;;;;;;;6.91;100.00;99347.31;5012431;28;20328;-82
2023/09/17 07:44:25;;;;;;;;;;;;;;;7.19;100.00;99449.09;5033874;23;19929;-81
2023/09/17 07:46:50;;;;;;;;;;;;;;;7.01;100.00;99438.25;5031505;28;19921;-81
2023/09/17 07:49:17;;;;;;;;;;;;;;;6.84;100.00;99440.59;5031727;28;20377;-81
2023/09/17 07:51:43;;;;;;;;;;;;;;;6.67;100.00;99436.75;5032956;28;19921;-81
2023/09/17 07:54:08;;;;;;;;;;;;;;;6.58;100.00;99431.78;5031255;28;19918;-81
2023/09/17 07:56:34;;;;;;;;;;;;;;;6.46;100.00;99426.91;5032790;28;19928;-81
2023/09/17 07:58:59;;;;;;;;;;;;;;;6.42;100.00;99425.28;5031131;28;19924;-81
2023/09/17 08:01:24;;;;;;;;;;;;;;;6.31;100.00;99418.56;5031028;28;20035;-81
2023/09/17 08:03:50;;;;;;;;;;;;;;;6.26;100.00;99420.50;5032414;28;19917;-80
2023/09/17 08:06:15;;;;;;;;;;;;;;;6.27;100.00;99426.59;5032441;28;20018;-81
2023/09/17 08:08:42;;;;;;;;;;;;;;;6.23;100.00;99436.38;5031103;28;19923;-80
2023/09/17 08:11:07;;;;;;;;;;;;;;;6.25;100.00;99429.28;5032230;28;20360;-84
2023/09/17 08:13:33;;;;;;;;;;;;;;;6.21;100.00;99425.03;5029560;28;19921;-82
2023/09/17 08:15:58;;;;;;;;;;;;;;;6.28;100.00;99423.94;5032310;28;19922;-80
2023/09/17 08:18:23;;;;;;;;;;;;;;;6.27;100.00;99416.97;5032015;28;19917;-82
2023/09/17 08:20:48;;;;;;;;;;;;;;;6.33;100.00;99416.78;5032161;28;19921;-81
2023/09/17 08:23:14;;;;;;;;;;;;;;;6.34;100.00;99413.22;5032160;28;19917;-82
2023/09/17 08:25:39;;;;;;;;;;;;;;;6.35;100.00;99414.06;5031954;28;20276;-82
2023/09/17 08:28:06;;;;;;;;;;;;;;;6.36;100.00;99411.38;5030753;28;19917;-82
2023/09/17 08:30:32;;;;;;;;;;;;;;;6.25;100.00;99423.16;5030728;28;19929;-84
2023/09/17 08:32:59;;;;;;;;;;;;;;;6.28;100.00;99428.34;5031940;28;20453;-80
2023/09/17 08:35:25;;;;;;;;;;;;;;;6.17;100.00;99420.78;5032011;28;19921;-84
2023/09/17 08:37:50;;;;;;;;;;;;;;;6.13;100.00;99419.16;5030636;28;20024;-80
2023/09/17 08:40:18;;;;;;;;;;;;;;;6.13;100.00;99421.78;5032010;28;20020;-81
2023/09/17 08:42:45;;;;;;;;;;;;;;;6.15;100.00;99438.38;5030598;28;20249;-80
2023/09/17 08:45:11;;;;;;;;;;;;;;;6.22;100.00;99442.53;5031693;28;19921;-79
2023/09/17 08:47:37;;;;;;;;;;;;;;;6.30;100.00;99430.03;5031013;28;20430;-80
2023/09/17 08:50:03;;;;;;;;;;;;;;;6.25;100.00;99429.28;5032009;28;19917;-82
2023/09/17 08:52:32;;;;;;;;;;;;;;;6.28;100.00;99426.56;5030472;28;20044;-80
2023/09/17 08:54:58;;;;;;;;;;;;;;;6.28;100.00;99425.72;5031238;28;20007;-80
2023/09/17 08:57:25;;;;;;;;;;;;;;;6.24;100.00;99424.94;5030302;28;19920;-83
2023/09/17 09:00:10;;;;;;;;;;;;;;;6.23;100.00;99433.75;5031826;28;20331;-82
2023/09/17 09:02:48;;;;;;;;;;;;;;;6.09;100.00;99428.03;5030133;28;19920;-82
2023/09/17 09:05:16;;;;;;;;;;;;;;;6.12;100.00;99422.69;5031593;28;19924;-82
2023/09/17 09:07:46;;;;;;;;;;;;;;;6.08;100.00;99427.19;5031823;28;19917;-80
2023/09/17 09:10:13;;;;;;;;;;;;;;;6.17;100.00;99428.66;5029958;28;20376;-81
2023/09/17 09:12:38;;;;;;;;;;;;;;;6.15;100.00;99427.84;5029306;28;19959;-81
2023/09/17 09:15:05;;;;;;;;;;;;;;;6.15;100.00;99418.19;5031534;28;19965;-81
2023/09/17 09:17:30;;;;;;;;;;;;;;;6.19;100.00;99418.97;5030322;28;19971;-80
2023/09/17 09:19:56;;;;;;;;;;;;;;;6.17;100.00;99420.78;5031653;28;20357;-80
2023/09/17 09:22:23;;;;;;;;;;;;;;;6.04;100.00;99422.06;5033295;28;19921;-81
2023/09/17 09:24:48;;;;;;;;;;;;;;;5.98;100.00;99423.97;5035233;28;19917;-81
2023/09/17 12:59:34;;;;;;;;;;;;;;;6.75;100.00;99281.16;5250198;23;20339;-80
2023/09/17 13:02:00;;;;;;;;;;;;;;;6.94;100.00;99272.56;5034014;28;19932;-81
2023/09/17 13:04:31;;;;;;;;;;;;;;;7.10;100.00;99284.28;5034258;28;20257;-80
2023/09/17 13:06:57;;;;;;;;;;;;;;;7.15;100.00;99279.72;5033629;28;20368;-81
2023/09/17 13:09:22;;;;;;;;;;;;;;;7.25;100.00;99281.06;5034352;28;19943;-81
2023/09/17 13:11:47;;;;;;;;;;;;;;;7.34;100.00;99271.97;5033567;28;19925;-85
2023/09/17 13:14:12;;;;;;;;;;;;;;;7.43;100.00;99262.84;5047452;28;19928;-80
2023/09/17 13:16:42;;;;;;;;;;;;;;;7.52;100.00;99269.56;5033636;28;19928;-80
2023/09/17 13:19:07;;;;;;;;;;;;;;;7.55;100.00;99258.91;5035586;28;20267;-81
2023/09/17 13:21:32;;;;;;;;;;;;;;;7.54;100.00;99259.81;5034657;28;19928;-80
2023/09/17 13:23:59;;;;;;;;;;;;;;;7.58;100.00;99262.25;5034271;28;19925;-80
2023/09/17 13:26:24;;;;;;;;;;;;;;;7.62;100.00;99247.19;5035216;28;19925;-81
2023/09/17 13:28:53;;;;;;;;;;;;;;;7.70;100.00;99244.25;5033504;28;19925;-80
2023/09/17 13:31:19;;;;;;;;;;;;;;;7.72;100.00;99245.03;5032794;28;19917;-81
2023/09/17 13:33:45;;;;;;;;;;;;;;;7.76;100.00;99239.56;5035473;28;19988;-79
2023/09/17 13:36:11;;;;;;;;;;;;;;;7.74;100.00;99244.06;5034370;28;20363;-83
2023/09/17 13:38:40;;;;;;;;;;;;;;;7.78;100.00;99247.44;5033119;28;20013;-83
2023/09/17 13:41:05;;;;;;;;;;;;;;;7.84;100.00;99243.69;5034398;28;20036;-80
2023/09/17 13:43:30;;;;;;;;;;;;;;;7.87;100.00;99243.56;5033930;28;20003;-80
2023/09/17 13:45:57;;;;;;;;;;;;;;;7.89;100.00;99247.84;5033088;28;19921;-80
2023/09/17 13:48:23;;;;;;;;;;;;;;;7.96;100.00;99240.53;5032756;28;20352;-82
2023/09/17 13:50:49;;;;;;;;;;;;;;;7.94;100.00;99234.47;5034927;28;20323;-80
2023/09/17 13:53:14;;;;;;;;;;;;;;;8.03;100.00;99233.25;5033458;28;19936;-81
2023/09/17 13:55:40;;;;;;;;;;;;;;;8.03;100.00;99231.47;5033555;28;19940;-83
2023/09/17 13:58:05;;;;;;;;;;;;;;;8.03;100.00;99238.53;5032318;28;19917;-80
2023/09/17 14:00:31;;;;;;;;;;;;;;;8.10;100.00;99235.56;5032999;28;19932;-79
2023/09/17 14:03:00;;;;;;;;;;;;;;;8.16;100.00;99234.47;5033842;28;19967;-81
2023/09/17 14:05:25;;;;;;;;;;;;;;;8.16;100.00;99227.38;5034818;28;19971;-79
2023/09/17 14:07:51;;;;;;;;;;;;;;;8.16;100.00;99232.66;5033396;28;19921;-79
2023/09/17 14:10:16;;;;;;;;;;;;;;;8.18;100.00;99225.56;5034397;28;19963;-79
2023/09/17 14:12:42;;;;;;;;;;;;;;;8.18;100.00;99220.28;5032637;28;19921;-79
2023/09/17 14:15:07;;;;;;;;;;;;;;;8.23;100.00;99227.97;5031502;28;19928;-80
2023/09/17 14:17:32;;;;;;;;;;;;;;;8.18;100.00;99220.28;5032972;28;20276;-80
2023/09/17 14:19:58;;;;;;;;;;;;;;;8.25;100.00;99220.88;5033336;28;19936;-82
2023/09/17 14:22:26;;;;;;;;;;;;;;;8.23;100.00;99216.56;5033597;28;19921;-83
2023/09/17 14:24:51;;;;;;;;;;;;;;;8.31;100.00;99225.03;5033608;28;19924;-79
2023/09/17 14:27:16;;;;;;;;;;;;;;;8.24;100.00;99211.22;5033125;28;19921;-84
2023/09/17 14:29:43;;;;;;;;;;;;;;;8.27;100.00;99207.63;5032500;28;19984;-81
2023/09/17 14:32:09;;;;;;;;;;;;;;;8.27;100.00;99207.63;5033439;28;19928;-81
2023/09/17 14:34:34;;;;;;;;;;;;;;;8.31;100.00;99196.88;5033360;28;20392;-84
2023/09/17 14:36:59;;;;;;;;;;;;;;;8.35;100.00;99195.78;5031636;28;19952;-80
2023/09/17 14:39:24;;;;;;;;;;;;;;;8.34;100.00;99193.22;5034041;28;19921;-80
2023/09/17 14:41:52;;;;;;;;;;;;;;;8.35;100.00;99190.50;5032556;28;19985;-82
2023/09/17 14:44:18;;;;;;;;;;;;;;;8.38;100.00;99192.19;5031566;28;19971;-81
2023/09/17 14:46:43;;;;;;;;;;;;;;;8.42;100.00;99191.09;5033216;28;20364;-80
2023/09/17 14:49:08;;;;;;;;;;;;;;;8.43;100.00;99190.22;5033724;28;19921;-85
2023/09/17 14:51:33;;;;;;;;;;;;;;;8.49;100.00;99192.59;5032037;28;20360;-83
2023/09/17 14:53:59;;;;;;;;;;;;;;;8.51;100.00;99188.09;5033388;28;19925;-82
2023/09/17 14:56:28;;;;;;;;;;;;;;;8.55;100.00;99191.44;5034329;28;20272;-80
2023/09/17 14:58:53;;;;;;;;;;;;;;;8.51;100.00;99184.59;5032043;28;19917;-81
2023/09/17 15:01:18;;;;;;;;;;;;;;;8.41;100.00;99184.13;5033715;28;20013;-83
2023/09/17 15:03:44;;;;;;;;;;;;;;;7.77;100.00;99177.13;5032601;28;20287;-82
2023/09/17 15:06:09;;;;;;;;;;;;;;;7.54;100.00;99175.44;5048762;28;20391;-84
2023/09/17 15:08:35;;;;;;;;;;;;;;;7.42;100.00;99166.25;5033658;28;19928;-83
2023/09/17 15:11:00;;;;;;;;;;;;;;;7.33;100.00;99162.19;5033261;28;19913;-82
2023/09/17 15:13:26;;;;;;;;;;;;;;;7.31;100.00;99158.78;5030799;28;19927;-83
2023/09/17 15:15:51;;;;;;;;;;;;;;;7.23;100.00;99158.22;5033315;28;20385;-79
2023/09/17 15:18:16;;;;;;;;;;;;;;;7.12;100.00;99153.34;5033323;28;19921;-85
2023/09/17 15:20:43;;;;;;;;;;;;;;;7.06;100.00;99143.91;5032417;28;19917;-83
2023/09/17 15:23:08;;;;;;;;;;;;;;;7.03;100.00;99149.28;5048437;28;19924;-82
2023/09/17 15:25:33;;;;;;;;;;;;;;;7.03;100.00;99145.81;5032956;28;20276;-84
2023/09/17 15:27:59;;;;;;;;;;;;;;;7.00;100.00;99138.88;5031765;28;19928;-82
2023/09/17 15:30:24;;;;;;;;;;;;;;;6.96;100.00;99144.34;5033018;28;19917;-83
2023/09/17 15:32:50;;;;;;;;;;;;;;;6.94;100.00;99141.75;5048273;28;20450;-82
2023/09/17 15:35:19;;;;;;;;;;;;;;;6.93;100.00;99134.75;5032934;28;20357;-81
2023/09/17 15:37:44;;;;;;;;;;;;;;;6.89;100.00;99146.31;5032893;28;19927;-81
2023/09/17 15:40:09;;;;;;;;;;;;;;;6.88;100.00;99140.19;5031701;28;19917;-81
2023/09/17 15:42:35;;;;;;;;;;;;;;;6.79;100.00;99137.06;5031496;28;19925;-82
2023/09/17 15:45:01;;;;;;;;;;;;;;;6.80;100.00;99136.16;5032429;28;19971;-85
2023/09/17 15:47:26;;;;;;;;;;;;;;;6.82;100.00;99134.31;5048496;28;19917;-81
2023/09/17 15:49:53;;;;;;;;;;;;;;;6.79;100.00;99134.44;5048308;28;19971;-82
2023/09/17 15:52:19;;;;;;;;;;;;;;;6.73;100.00;99135.50;5032207;28;19917;-82
2023/09/17 15:54:44;;;;;;;;;;;;;;;6.73;100.00;99128.50;5032690;28;20323;-82
2023/09/17 15:57:09;;;;;;;;;;;;;;;6.73;100.00;99120.59;5032669;28;19925;-80
2023/09/17 15:59:36;;;;;;;;;;;;;;;6.68;100.00;99126.94;5031675;28;19990;-82
2023/09/17 16:02:01;;;;;;;;;;;;;;;6.68;100.00;99127.78;5033102;28;19921;-84
2023/09/17 16:04:26;;;;;;;;;;;;;;;6.70;100.00;99119.81;5032829;28;19971;-82
2023/09/17 16:06:52;;;;;;;;;;;;;;;6.68;100.00;99129.56;5032602;28;20319;-81
2023/09/17 16:09:17;;;;;;;;;;;;;;;6.67;100.00;99119.94;5047247;28;19917;-83
2023/09/17 16:11:42;;;;;;;;;;;;;;;6.64;100.00;99126.19;5031420;28;20360;-83
2023/09/17 16:14:08;;;;;;;;;;;;;;;6.61;100.00;99122.81;5031496;28;19925;-81
2023/09/17 16:16:33;;;;;;;;;;;;;;;6.60;100.00;99124.56;5032470;28;20446;-81
2023/09/17 16:18:58;;;;;;;;;;;;;;;6.54;100.00;99122.16;5031574;28;19921;-81
2023/09/17 16:21:23;;;;;;;;;;;;;;;6.57;100.00;99118.56;5030212;28;19924;-80
2023/09/17 16:23:49;;;;;;;;;;;;;;;6.54;100.00;99123.03;5032531;28;20400;-81
2023/09/17 16:26:14;;;;;;;;;;;;;;;6.52;100.00;99116.97;5032425;28;19944;-81
2023/09/17 16:28:43;;;;;;;;;;;;;;;6.59;100.00;99124.63;5013515;28;19944;-80
2023/09/17 16:31:08;;;;;;;;;;;;;;;6.59;100.00;99116.72;5032139;28;19917;-81
2023/09/17 16:33:33;;;;;;;;;;;;;;;6.62;100.00;99111.34;5031734;28;19921;-84
2023/09/17 16:35:59;;;;;;;;;;;;;;;6.48;100.00;99111.88;5031297;28;19921;-79
2023/09/17 16:38:24;;;;;;;;;;;;;;;6.51;100.00;99103.84;5031409;28;20438;-83
2023/09/17 16:40:50;;;;;;;;;;;;;;;6.51;100.00;99111.75;5032708;28;19917;-85
2023/09/17 16:43:15;;;;;;;;;;;;;;;6.56;100.00;99109.81;5047988;28;20287;-79
2023/09/17 16:45:41;;;;;;;;;;;;;;;6.51;100.00;99109.13;5031721;28;19921;-81
2023/09/17 16:48:06;;;;;;;;;;;;;;;6.59;100.00;99109.72;5032816;28;20311;-79
2023/09/17 16:50:32;;;;;;;;;;;;;;;6.59;100.00;99104.44;5046543;28;20430;-87
2023/09/17 16:52:57;;;;;;;;;;;;;;;6.54;100.00;99103.75;5031446;28;19924;-80
2023/09/17 16:55:22;;;;;;;;;;;;;;;6.49;100.00;99100.44;5030080;28;19921;-81
2023/09/17 16:57:48;;;;;;;;;;;;;;;6.48;100.00;99093.47;5030844;28;19929;-80
2023/09/17 17:00:13;;;;;;;;;;;;;;;6.54;100.00;99093.22;5029347;28;20406;-83
2023/09/17 17:02:39;;;;;;;;;;;;;;;6.48;100.00;99093.47;5030884;28;19928;-81
2023/09/17 17:05:07;;;;;;;;;;;;;;;6.53;100.00;99095.00;5032046;28;20012;-85
2023/09/17 17:07:32;;;;;;;;;;;;;;;6.53;100.00;99092.38;5045913;28;19921;-81
2023/09/17 17:09:57;;;;;;;;;;;;;;;6.48;100.00;99090.84;5030948;28;19921;-85
2023/09/17 17:12:22;;;;;;;;;;;;;;;6.41;100.00;99098.06;5031636;28;19917;-83
2023/09/17 17:14:49;;;;;;;;;;;;;;;6.41;100.00;99099.84;5028503;28;20318;-81
2023/09/17 17:17:14;;;;;;;;;;;;;;;6.48;100.00;99101.38;5030158;28;19921;-81
2023/09/17 17:19:40;;;;;;;;;;;;;;;6.47;100.00;99102.25;5031694;28;19964;-81
2023/09/17 17:22:05;;;;;;;;;;;;;;;6.43;100.00;99105.91;5029676;28;19956;-81
2023/09/17 17:24:30;;;;;;;;;;;;;;;6.40;100.00;99101.63;5031189;28;19929;-80
2023/09/17 17:26:55;;;;;;;;;;;;;;;6.40;100.00;99104.28;5031625;28;19921;-81
2023/09/17 17:29:21;;;;;;;;;;;;;;;6.41;100.00;99098.06;5029458;28;20012;-82
2023/09/17 17:31:46;;;;;;;;;;;;;;;6.38;100.00;99092.91;5029849;28;19971;-80
2023/09/17 17:34:11;;;;;;;;;;;;;;;6.30;100.00;99094.97;5030242;28;20368;-83
2023/09/17 17:36:37;;;;;;;;;;;;;;;6.33;100.00;99090.47;5030940;28;20335;-81
2023/09/17 17:39:03;;;;;;;;;;;;;;;6.32;100.00;99087.91;5030437;28;19917;-82
2023/09/17 17:41:28;;;;;;;;;;;;;;;6.35;100.00;99088.66;5029729;28;19929;-84
2023/09/17 17:43:53;;;;;;;;;;;;;;;6.29;100.00;99088.88;5032223;28;19917;-80
2023/09/17 17:46:19;;;;;;;;;;;;;;;6.31;100.00;99083.56;5035072;28;19925;-85
2023/09/17 17:48:44;;;;;;;;;;;;;;;6.29;100.00;99088.88;5049320;28;19917;-81
2023/09/17 17:51:09;;;;;;;;;;;;;;;6.28;100.00;99086.28;5035253;28;20416;-81
2023/09/17 17:53:36;;;;;;;;;;;;;;;6.33;100.00;99079.09;5033754;28;19921;-80
2023/09/17 17:56:02;;;;;;;;;;;;;;;6.28;100.00;99073.97;5035075;28;20015;-83
2023/09/17 17:58:28;;;;;;;;;;;;;;;6.30;100.00;99069.53;5031881;28;20315;-80
2023/09/17 18:00:53;;;;;;;;;;;;;;;6.30;100.00;99066.03;5033752;28;19921;-82
2023/09/17 18:03:18;;;;;;;;;;;;;;;6.27;100.00;99069.66;5033812;28;19932;-86
2023/09/17 18:05:44;;;;;;;;;;;;;;;6.28;100.00;99068.72;5034563;28;19917;-82
2023/09/17 18:08:09;;;;;;;;;;;;;;;6.27;100.00;99063.50;5034584;28;20407;-81
2023/09/17 18:10:36;;;;;;;;;;;;;;;6.24;100.00;99068.88;5034223;28;19921;-82
2023/09/17 18:13:01;;;;;;;;;;;;;;;6.31;100.00;99071.25;5033298;28;19972;-82
2023/09/17 18:15:26;;;;;;;;;;;;;;;6.29;100.00;99074.88;5034689;28;20345;-83
2023/09/17 18:17:53;;;;;;;;;;;;;;;6.31;100.00;99070.41;5034451;28;20012;-82
2023/09/17 18:20:19;;;;;;;;;;;;;;;6.37;100.00;99070.19;5033491;28;19924;-82
2023/09/17 18:22:44;;;;;;;;;;;;;;;6.30;100.00;99066.91;5034472;28;19921;-81
2023/09/17 18:25:09;;;;;;;;;;;;;;;6.28;100.00;99071.34;5034244;28;19928;-81
2023/09/17 18:27:35;;;;;;;;;;;;;;;6.30;100.00;99074.81;5033268;28;19995;-82
2023/09/17 18:30:01;;;;;;;;;;;;;;;6.29;100.00;99073.09;5034287;28;19917;-82
2023/09/17 18:32:26;;;;;;;;;;;;;;;6.29;100.00;99077.50;5034049;28;20435;-81
2023/09/17 18:34:53;;;;;;;;;;;;;;;6.24;100.00;99069.78;5034634;28;19917;-81
2023/09/17 18:37:18;;;;;;;;;;;;;;;6.33;100.00;99072.06;5034010;28;19921;-81
2023/09/17 18:39:43;;;;;;;;;;;;;;;6.41;100.00;99073.53;5034174;28;19917;-83
2023/09/17 18:42:09;;;;;;;;;;;;;;;6.37;100.00;99070.19;5032763;28;19921;-81
2023/09/17 18:44:36;;;;;;;;;;;;;;;6.31;100.00;99071.25;5032830;28;19928;-86
2023/09/17 18:47:03;;;;;;;;;;;;;;;6.31;100.00;99060.72;5033220;28;19925;-81
2023/09/17 18:49:28;;;;;;;;;;;;;;;6.32;100.00;99067.72;5033775;28;19964;-79
2023/09/17 18:51:54;;;;;;;;;;;;;;;6.33;100.00;99063.28;5034001;28;19917;-86
2023/09/17 18:54:20;;;;;;;;;;;;;;;6.35;100.00;99053.56;5032901;28;19963;-79
2023/09/17 18:56:45;;;;;;;;;;;;;;;6.30;100.00;99053.75;5032338;28;20453;-80
2023/09/17 18:59:10;;;;;;;;;;;;;;;6.29;100.00;99053.81;5032319;28;19928;-80
2023/09/17 19:01:36;;;;;;;;;;;;;;;6.39;100.00;99057.81;5033476;28;19987;-80
2023/09/17 19:04:03;;;;;;;;;;;;;;;6.43;100.00;99063.81;5032847;28;20008;-80
2023/09/17 19:06:28;;;;;;;;;;;;;;;6.35;100.00;99078.13;5048675;28;19917;-80
2023/09/17 19:08:53;;;;;;;;;;;;;;;6.29;100.00;99073.09;5033605;28;19925;-80
2023/09/17 19:11:19;;;;;;;;;;;;;;;6.39;100.00;99065.69;5033480;28;19928;-81
2023/09/17 19:13:44;;;;;;;;;;;;;;;6.40;100.00;99062.16;5030958;28;19921;-80
2023/09/17 19:16:09;;;;;;;;;;;;;;;6.37;100.00;99067.53;5033392;28;20326;-79
2023/09/17 19:18:37;;;;;;;;;;;;;;;6.33;100.00;99068.56;5033312;28;19959;-79
2023/09/17 19:21:10;;;;;;;;;;;;;;;6.37;100.00;99072.81;5032028;28;19991;-79
2023/09/17 19:23:35;;;;;;;;;;;;;;;6.31;100.00;99068.59;5032629;28;19979;-80
2023/09/17 19:26:01;;;;;;;;;;;;;;;6.33;100.00;99068.56;5032857;28;19921;-80
2023/09/17 19:28:26;;;;;;;;;;;;;;;6.27;100.00;99068.78;5031890;28;19925;-81
2023/09/17 19:30:52;;;;;;;;;;;;;;;6.28;100.00;99066.09;5033004;28;19960;-80
2023/09/17 19:33:17;;;;;;;;;;;;;;;6.25;100.00;99067.97;5048374;28;19924;-81
2023/09/17 19:35:42;;;;;;;;;;;;;;;6.30;100.00;99060.78;5032951;28;19917;-80
2023/09/17 19:38:08;;;;;;;;;;;;;;;6.36;100.00;99056.13;5032782;28;19984;-81
2023/09/17 19:40:33;;;;;;;;;;;;;;;6.24;100.00;99059.25;5048091;28;19918;-80
2023/09/17 19:42:59;;;;;;;;;;;;;;;6.22;100.00;99066.31;5031723;28;19928;-79
2023/09/17 19:45:25;;;;;;;;;;;;;;;6.22;100.00;99057.56;5032577;28;19921;-80
2023/09/17 19:47:51;;;;;;;;;;;;;;;6.28;100.00;99054.72;5032634;28;19917;-80
2023/09/17 19:50:16;;;;;;;;;;;;;;;6.27;100.00;99059.13;5032670;28;20407;-80
2023/09/17 19:52:41;;;;;;;;;;;;;;;6.33;100.00;99051.00;5032594;28;20253;-80
2023/09/17 19:55:07;;;;;;;;;;;;;;;6.27;100.00;99045.97;5032723;28;20019;-80
2023/09/17 19:57:32;;;;;;;;;;;;;;;6.23;100.00;99044.34;5032149;28;19981;-80
2023/09/17 19:59:59;;;;;;;;;;;;;;;6.25;100.00;99034.63;5031493;28;19940;-80
2023/09/17 20:02:24;;;;;;;;;;;;;;;6.24;100.00;99025.03;5032256;28;19921;-80
2023/09/17 20:04:50;;;;;;;;;;;;;;;6.24;100.00;99022.41;5032566;28;19928;-80
2023/09/17 20:07:15;;;;;;;;;;;;;;;6.20;100.00;99015.53;5032226;28;19923;-84
2023/09/17 20:09:40;;;;;;;;;;;;;;;6.26;100.00;99015.31;5047511;28;19924;-80
2023/09/17 20:12:06;;;;;;;;;;;;;;;6.20;100.00;99019.94;5032459;28;19924;-80
2023/09/17 20:14:31;;;;;;;;;;;;;;;6.21;100.00;99017.25;5046157;28;19924;-80
2023/09/17 20:16:56;;;;;;;;;;;;;;;6.29;100.00;99019.63;5014454;28;20003;-80
2023/09/17 20:19:21;;;;;;;;;;;;;;;6.29;100.00;99024.88;5030999;28;19936;-80
2023/09/17 20:21:47;;;;;;;;;;;;;;;6.28;100.00;99016.09;5032154;28;19917;-80
2023/09/17 20:24:12;;;;;;;;;;;;;;;6.27;100.00;99021.41;5032242;28;19928;-80
2023/09/17 20:26:37;;;;;;;;;;;;;;;6.28;100.00;99018.72;5032022;28;20325;-80
2023/09/17 20:29:06;;;;;;;;;;;;;;;6.26;100.00;99017.94;5030893;28;19921;-81
2023/09/17 20:31:31;;;;;;;;;;;;;;;6.31;100.00;99013.34;5031690;28;19928;-80
2023/09/17 20:33:56;;;;;;;;;;;;;;;6.31;100.00;99010.72;5032308;28;19917;-80
2023/09/17 20:36:22;;;;;;;;;;;;;;;6.29;100.00;99011.72;5032105;28;19917;-79
2023/09/17 20:38:49;;;;;;;;;;;;;;;6.26;100.00;99006.56;5030781;28;19921;-79
2023/09/17 20:41:15;;;;;;;;;;;;;;;6.25;100.00;99012.75;5047483;28;19917;-80
2023/09/17 20:43:40;;;;;;;;;;;;;;;6.36;100.00;99000.03;5046091;28;19927;-79
2023/09/17 20:46:06;;;;;;;;;;;;;;;6.41;100.00;99010.38;5031855;28;19972;-80
2023/09/17 20:48:31;;;;;;;;;;;;;;;6.40;100.00;99008.66;5032015;28;20785;-82
2023/09/17 20:50:57;;;;;;;;;;;;;;;6.34;100.00;99017.66;5031995;28;19920;-82
2023/09/17 20:53:22;;;;;;;;;;;;;;;6.25;100.00;99008.31;5030730;28;19928;-82
2023/09/17 20:55:47;;;;;;;;;;;;;;;6.21;100.00;99000.59;5031913;28;19992;-83
2023/09/17 20:58:12;;;;;;;;;;;;;;;6.23;100.00;98994.38;5029444;28;20368;-81
2023/09/17 21:00:37;;;;;;;;;;;;;;;6.20;100.00;98994.50;5030441;28;20394;-83
2023/09/17 21:03:03;;;;;;;;;;;;;;;6.21;100.00;98998.84;5031976;28;19921;-80
2023/09/17 21:05:28;;;;;;;;;;;;;;;6.14;100.00;99000.84;5032259;28;19917;-82
2023/09/17 21:07:53;;;;;;;;;;;;;;;6.16;100.00;99006.06;5030528;28;19921;-81
2023/09/17 21:10:19;;;;;;;;;;;;;;;6.21;100.00;99001.47;5030578;28;20326;-81
2023/09/17 21:12:44;;;;;;;;;;;;;;;6.22;100.00;98992.66;5029228;28;19982;-80
2023/09/17 21:15:10;;;;;;;;;;;;;;;6.17;100.00;98990.22;5030615;28;20323;-81
2023/09/17 21:17:35;;;;;;;;;;;;;;;6.15;100.00;98991.19;5032402;28;19924;-82
2023/09/17 21:20:04;;;;;;;;;;;;;;;6.17;100.00;98992.84;5034363;28;20345;-81
2023/09/17 21:22:30;;;;;;;;;;;;;;;6.14;100.00;98985.06;5035497;28;19913;-79
2023/09/17 21:24:55;;;;;;;;;;;;;;;6.11;100.00;98979.03;5035304;28;19921;-80
2023/09/17 21:27:20;;;;;;;;;;;;;;;6.16;100.00;98971.88;5050812;28;19918;-80
2023/09/17 21:29:46;;;;;;;;;;;;;;;6.16;100.00;98972.72;5032774;28;19913;-80
2023/09/17 21:32:11;;;;;;;;;;;;;;;6.20;100.00;98973.44;5035304;28;19917;-80
2023/09/17 21:34:36;;;;;;;;;;;;;;;6.17;100.00;98987.59;5033913;28;20013;-80
2023/09/17 21:37:02;;;;;;;;;;;;;;;6.16;100.00;98991.13;5035346;28;19936;-80
2023/09/17 21:39:31;;;;;;;;;;;;;;;6.11;100.00;98984.31;5035224;28;19917;-79
2023/09/17 21:41:56;;;;;;;;;;;;;;;6.15;100.00;98980.66;5033292;28;19936;-80
2023/09/17 21:44:22;;;;;;;;;;;;;;;6.16;100.00;98971.88;5033878;28;20280;-80
2023/09/17 21:46:47;;;;;;;;;;;;;;;6.18;100.00;98967.41;5033670;28;20028;-79
2023/09/17 21:49:12;;;;;;;;;;;;;;;6.13;100.00;98962.31;5034985;28;19917;-80
2023/09/17 21:51:38;;;;;;;;;;;;;;;6.09;100.00;98965.09;5034884;28;19923;-80
2023/09/17 21:54:03;;;;;;;;;;;;;;;6.14;100.00;98953.50;5034900;28;20407;-80
2023/09/17 21:56:28;;;;;;;;;;;;;;;6.08;100.00;98952.84;5035081;28;19917;-80
2023/09/17 21:58:53;;;;;;;;;;;;;;;6.04;100.00;98948.66;5032753;28;19956;-81
2023/09/17 22:01:19;;;;;;;;;;;;;;;6.00;100.00;98945.28;5035039;28;19927;-80
2023/09/17 22:03:44;;;;;;;;;;;;;;;5.99;100.00;98939.16;5049591;28;19917;-81
2023/09/17 22:06:10;;;;;;;;;;;;;;;6.05;100.00;98939.81;5034862;28;19921;-80
2023/09/17 22:08:35;;;;;;;;;;;;;;;6.04;100.00;98930.25;5034710;28;19917;-80
2023/09/17 22:11:05;;;;;;;;;;;;;;;5.95;100.00;98929.63;5033223;28;19928;-81
2023/09/17 22:13:30;;;;;;;;;;;;;;;5.99;100.00;98922.53;5048782;28;19995;-80
2023/09/17 22:15:55;;;;;;;;;;;;;;;6.05;100.00;98911.78;5034377;28;20376;-81
2023/09/17 22:18:20;;;;;;;;;;;;;;;6.05;100.00;98910.88;5034425;28;19928;-80
2023/09/17 22:20:47;;;;;;;;;;;;;;;5.99;100.00;98901.47;5034453;28;19970;-80
2023/09/17 22:23:13;;;;;;;;;;;;;;;6.04;100.00;98899.53;5034299;28;20410;-83
2023/09/17 22:25:38;;;;;;;;;;;;;;;6.07;100.00;98895.94;5033034;28;19920;-81
2023/09/17 22:28:03;;;;;;;;;;;;;;;6.12;100.00;98897.44;5032561;28;19921;-81
2023/09/17 22:30:29;;;;;;;;;;;;;;;6.09;100.00;98899.34;5034095;28;19921;-81
2023/09/17 22:32:54;;;;;;;;;;;;;;;6.15;100.00;98892.06;5049458;28;19917;-80
2023/09/17 22:35:20;;;;;;;;;;;;;;;6.14;100.00;98889.50;5032967;28;20407;-81
2023/09/17 22:37:45;;;;;;;;;;;;;;;6.08;100.00;98900.25;5033829;28;20292;-81
2023/09/17 22:40:11;;;;;;;;;;;;;;;6.10;100.00;98893.19;5033969;28;19925;-80
2023/09/17 22:42:36;;;;;;;;;;;;;;;6.10;100.00;98901.06;5032948;28;19917;-81
2023/09/17 22:45:01;;;;;;;;;;;;;;;6.06;100.00;98902.09;5033279;28;20397;-81
2023/09/17 22:47:27;;;;;;;;;;;;;;;6.09;100.00;98907.25;5033852;28;19917;-82
2023/09/17 22:49:55;;;;;;;;;;;;;;;6.07;100.00;98906.44;5033707;28;19917;-82
2023/09/17 22:52:20;;;;;;;;;;;;;;;6.06;100.00;98902.09;5033385;28;19964;-82
2023/09/17 22:54:46;;;;;;;;;;;;;;;6.14;100.00;98902.66;5033723;28;20018;-82
2023/09/17 22:57:11;;;;;;;;;;;;;;;6.11;100.00;98908.91;5033874;28;19928;-83
2023/09/17 22:59:39;;;;;;;;;;;;;;;6.02;100.00;98905.78;5047422;28;20011;-82
2023/09/17 23:02:04;;;;;;;;;;;;;;;10.03;100.00;98900.47;5033272;28;19977;-82
2023/09/17 23:04:32;;;;;;;;;;;;;;;8.39;100.00;98900.00;5033157;28;19914;-82
2023/09/17 23:06:57;;;;;;;;;;;;;;;7.18;100.00;98886.13;5033304;28;19956;-83
2023/09/17 23:09:22;;;;;;;;;;;;;;;6.69;100.00;98882.03;5033352;28;19959;-81
2023/09/17 23:11:47;;;;;;;;;;;;;;;6.54;100.00;98877.38;5033299;28;19917;-80
2023/09/17 23:14:13;;;;;;;;;;;;;;;6.53;100.00;98870.44;5032035;28;19921;-82
2023/09/17 23:16:39;;;;;;;;;;;;;;;6.39;100.00;98862.22;5033345;28;19924;-82
2023/09/17 23:19:07;;;;;;;;;;;;;;;6.41;100.00;98855.13;5033209;28;19921;-83
2023/09/17 23:21:33;;;;;;;;;;;;;;;6.33;100.00;98851.03;5032623;28;19921;-82
2023/09/17 23:23:59;;;;;;;;;;;;;;;6.28;100.00;98850.34;5032860;28;20276;-83
2023/09/17 23:26:28;;;;;;;;;;;;;;;6.24;100.00;98848.78;5032613;28;19924;-80
